createdAt,value
2019-02-14T00:00:43.517Z,101336.52
2019-02-14T00:03:11.621Z,101337.34
2019-02-14T00:05:39.110Z,101351.63
2019-02-14T00:08:06.571Z,101344.52
2019-02-14T00:10:34.036Z,101349.29
2019-02-14T00:13:01.513Z,101347.78
2019-02-14T00:15:28.948Z,101349.62
2019-02-14T00:17:56.421Z,101349.40
2019-02-14T00:20:23.879Z,101356.07
2019-02-14T00:22:51.354Z,101351.55
2019-02-14T00:25:18.803Z,101347.84
2019-02-14T00:27:46.262Z,101343.97
2019-02-14T00:30:13.716Z,101347.67
2019-02-14T00:32:41.150Z,101354.12
2019-02-14T00:35:08.623Z,101357.97
2019-02-14T00:37:36.108Z,101361.98
2019-02-14T00:40:03.580Z,101359.41
2019-02-14T00:42:31.032Z,101363.13
2019-02-14T00:44:58.497Z,101363.06
2019-02-14T00:47:25.971Z,101353.83
2019-02-14T00:49:54.424Z,101358.94
2019-02-14T00:52:21.888Z,101358.17
2019-02-14T00:54:49.329Z,101352.77
2019-02-14T00:57:16.826Z,101355.70
2019-02-14T00:59:44.287Z,101349.94
2019-02-14T01:02:11.742Z,101355.27
2019-02-14T01:04:39.181Z,101354.86
2019-02-14T01:07:06.641Z,101357.50
2019-02-14T01:09:34.075Z,101359.05
2019-02-14T01:12:01.579Z,101357.86
2019-02-14T01:14:29.049Z,101354.10
2019-02-14T01:16:56.633Z,101349.19
2019-02-14T01:19:24.883Z,101350.84
2019-02-14T01:21:52.311Z,101357.96
2019-02-14T01:24:19.744Z,101356.06
2019-02-14T01:26:47.188Z,101351.78
2019-02-14T01:29:14.643Z,101358.63
2019-02-14T01:31:42.082Z,101363.02
2019-02-14T01:34:09.545Z,101346.13
2019-02-14T01:36:36.983Z,101343.95
2019-02-14T01:39:04.455Z,101345.21
2019-02-14T01:41:31.903Z,101344.47
2019-02-14T01:44:00.351Z,101341.78
2019-02-14T01:46:27.888Z,101335.41
2019-02-14T01:48:55.666Z,101344.38
2019-02-14T01:51:23.163Z,101338.30
2019-02-14T01:53:50.623Z,101337.39
2019-02-14T01:56:18.105Z,101341.55
2019-02-14T01:58:45.632Z,101336.97
2019-02-14T02:01:13.100Z,101333.26
2019-02-14T02:03:40.580Z,101333.55
2019-02-14T02:06:08.016Z,101322.88
2019-02-14T02:08:35.526Z,101324.30
2019-02-14T02:11:02.999Z,101325.81
2019-02-14T02:13:30.424Z,101334.32
2019-02-14T02:15:57.866Z,101328.37
2019-02-14T02:18:26.337Z,101320.79
2019-02-14T02:20:53.799Z,101325.30
2019-02-14T02:23:21.286Z,101326.53
2019-02-14T02:25:48.758Z,101322.80
2019-02-14T02:28:17.090Z,101321.75
2019-02-14T02:30:44.672Z,101323.38
2019-02-14T02:33:12.153Z,101320.25
2019-02-14T02:35:39.609Z,101322.14
2019-02-14T02:38:07.090Z,101325.70
2019-02-14T02:40:34.535Z,101323.91
2019-02-14T02:43:02.035Z,101323.07
2019-02-14T02:45:29.494Z,101323.73
2019-02-14T02:47:56.962Z,101320.53
2019-02-14T02:50:24.474Z,101327.91
2019-02-14T02:52:51.976Z,101325.67
2019-02-14T02:55:19.411Z,101326.84
2019-02-14T02:57:46.889Z,101329.05
2019-02-14T03:00:15.342Z,101326.44
2019-02-14T03:02:42.803Z,101325.52
2019-02-14T03:05:10.269Z,101332.27
2019-02-14T03:07:37.735Z,101330.36
2019-02-14T03:10:05.204Z,101332.34
2019-02-14T03:12:33.822Z,101329.67
2019-02-14T03:15:01.301Z,101332.89
2019-02-14T03:17:28.735Z,101330.55
2019-02-14T03:19:56.167Z,101336.52
2019-02-14T03:22:23.626Z,101329.92
2019-02-14T03:24:51.070Z,101336.50
2019-02-14T03:27:18.585Z,101333.09
2019-02-14T03:29:46.049Z,101328.70
2019-02-14T03:32:13.521Z,101335.02
2019-02-14T03:34:41.904Z,101337.48
2019-02-14T03:37:09.666Z,101338.00
2019-02-14T03:39:37.157Z,101335.13
2019-02-14T03:42:04.613Z,101331.98
2019-02-14T03:44:32.107Z,101330.96
2019-02-14T03:46:59.528Z,101334.39
2019-02-14T03:49:27.829Z,101340.16
2019-02-14T03:51:55.290Z,101345.93
2019-02-14T03:54:22.758Z,101341.78
2019-02-14T03:56:50.245Z,101345.45
2019-02-14T03:59:17.754Z,101342.91
2019-02-14T04:01:45.213Z,101347.80
2019-02-14T04:04:12.655Z,101346.53
2019-02-14T04:06:40.123Z,101342.98
2019-02-14T04:09:08.378Z,101348.05
2019-02-14T04:11:35.799Z,101348.28
2019-02-14T04:14:03.245Z,101340.84
2019-02-14T04:16:30.693Z,101337.41
2019-02-14T04:18:58.425Z,101339.53
2019-02-14T04:21:25.897Z,101333.03
2019-02-14T04:23:54.408Z,101339.63
2019-02-14T04:26:21.950Z,101343.36
2019-02-14T04:28:49.401Z,101354.60
2019-02-14T04:31:16.849Z,101351.20
2019-02-14T04:33:44.339Z,101346.91
2019-02-14T04:36:11.818Z,101345.63
2019-02-14T04:38:39.335Z,101347.69
2019-02-14T04:41:06.800Z,101342.31
2019-02-14T04:43:34.256Z,101350.98
2019-02-14T04:46:02.461Z,101347.90
2019-02-14T04:48:29.914Z,101352.44
2019-02-14T04:50:57.378Z,101343.05
2019-02-14T04:53:24.789Z,101335.06
2019-02-14T04:55:52.240Z,101338.44
2019-02-14T04:58:19.696Z,101344.40
2019-02-14T05:00:47.118Z,101337.27
2019-02-14T05:03:14.616Z,101345.45
2019-02-14T05:05:42.076Z,101337.84
2019-02-14T05:08:09.602Z,101353.26
2019-02-14T05:10:37.059Z,101350.34
2019-02-14T05:13:04.494Z,101350.98
2019-02-14T05:15:31.955Z,101355.58
2019-02-14T05:17:59.511Z,101353.67
2019-02-14T05:20:26.949Z,101357.19
2019-02-14T05:22:54.978Z,101360.02
2019-02-14T05:25:22.453Z,101359.55
2019-02-14T05:27:49.910Z,101372.71
2019-02-14T05:30:18.111Z,101367.66
2019-02-14T05:32:45.577Z,101369.61
2019-02-14T05:35:13.075Z,101368.78
2019-02-14T05:37:40.551Z,101368.05
2019-02-14T05:40:08.685Z,101368.36
2019-02-14T05:42:36.152Z,101370.96
2019-02-14T05:45:03.655Z,101376.25
2019-02-14T05:47:31.075Z,101376.19
2019-02-14T05:49:58.539Z,101379.91
2019-02-14T05:52:25.988Z,101381.78
2019-02-14T05:54:53.447Z,101383.48
2019-02-14T05:57:20.888Z,101386.14
2019-02-14T05:59:48.452Z,101372.95
2019-02-14T06:02:15.896Z,101379.35
2019-02-14T06:04:43.384Z,101391.39
2019-02-14T06:07:10.898Z,101397.07
2019-02-14T06:09:38.400Z,101400.25
2019-02-14T06:12:05.884Z,101400.45
2019-02-14T06:14:33.304Z,101410.19
2019-02-14T06:17:00.742Z,101404.02
2019-02-14T06:19:29.264Z,101413.45
2019-02-14T06:21:56.748Z,101416.72
2019-02-14T06:24:24.207Z,101409.44
2019-02-14T06:26:51.666Z,101410.74
2019-02-14T06:29:19.125Z,101413.12
2019-02-14T06:31:46.606Z,101406.28
2019-02-14T06:34:14.083Z,101409.38
2019-02-14T06:36:41.562Z,101404.44
2019-02-14T06:39:09.023Z,101406.22
2019-02-14T06:41:36.508Z,101410.11
2019-02-14T06:44:03.973Z,101410.03
2019-02-14T06:46:31.415Z,101416.90
2019-02-14T06:48:58.895Z,101406.19
2019-02-14T06:51:26.353Z,101412.69
2019-02-14T06:53:55.474Z,101408.85
2019-02-14T06:56:23.037Z,101420.45
2019-02-14T06:58:50.509Z,101415.35
2019-02-14T07:01:17.995Z,101423.60
2019-02-14T07:03:45.476Z,101432.17
2019-02-14T07:06:12.947Z,101435.00
2019-02-14T07:08:40.378Z,101434.93
2019-02-14T07:11:07.844Z,101439.16
2019-02-14T07:13:35.324Z,101439.77
2019-02-14T07:16:02.885Z,101440.20
2019-02-14T07:18:30.319Z,101449.63
2019-02-14T07:20:57.770Z,101445.17
2019-02-14T07:23:25.276Z,101442.33
2019-02-14T07:25:52.782Z,101447.19
2019-02-14T07:28:20.245Z,101443.19
2019-02-14T07:30:47.745Z,101435.42
2019-02-14T07:33:15.187Z,101443.47
2019-02-14T07:35:42.637Z,101435.02
2019-02-14T07:38:11.008Z,101441.46
2019-02-14T07:40:38.582Z,101441.60
2019-02-14T07:43:06.084Z,101447.17
2019-02-14T07:45:33.930Z,101440.27
2019-02-14T07:48:02.313Z,101445.86
2019-02-14T07:50:29.761Z,101444.13
2019-02-14T07:52:57.622Z,101453.55
2019-02-14T07:55:25.130Z,101453.02
2019-02-14T07:57:52.623Z,101448.09
2019-02-14T08:00:20.061Z,101443.87
2019-02-14T08:02:47.558Z,101447.80
2019-02-14T08:05:15.059Z,101437.19
2019-02-14T08:07:42.527Z,101447.05
2019-02-14T08:10:10.908Z,101446.55
2019-02-14T08:12:38.421Z,101442.08
2019-02-14T08:15:13.816Z,101441.70
2019-02-14T08:17:41.295Z,101440.25
2019-02-14T08:20:17.303Z,101440.87
2019-02-14T08:22:44.759Z,101446.22
2019-02-14T08:25:12.223Z,101439.58
2019-02-14T08:27:39.696Z,101437.92
2019-02-14T08:30:07.921Z,101430.98
2019-02-14T08:32:35.394Z,101431.63
2019-02-14T08:35:03.329Z,101431.09
2019-02-14T08:37:30.843Z,101428.67
2019-02-14T08:39:58.360Z,101430.27
2019-02-14T08:42:25.819Z,101432.19
2019-02-14T08:44:53.306Z,101434.98
2019-02-14T08:47:20.775Z,101433.22
2019-02-14T08:49:48.270Z,101432.78
2019-02-14T08:52:15.777Z,101428.15
2019-02-14T08:54:43.233Z,101421.50
2019-02-14T08:57:10.724Z,101423.14
2019-02-14T08:59:38.231Z,101426.92
2019-02-14T09:02:05.730Z,101432.27
2019-02-14T09:04:33.879Z,101430.63
2019-02-14T09:07:01.373Z,101431.72
2019-02-14T09:09:28.931Z,101428.15
2019-02-14T09:11:56.466Z,101431.72
2019-02-14T09:14:23.911Z,101431.00
2019-02-14T09:16:51.417Z,101430.52
2019-02-14T09:19:18.910Z,101428.17
2019-02-14T09:21:46.394Z,101427.36
2019-02-14T09:24:14.456Z,101428.78
2019-02-14T09:26:41.969Z,101428.09
2019-02-14T09:29:09.409Z,101433.87
2019-02-14T09:31:36.912Z,101429.21
2019-02-14T09:34:04.696Z,101427.13
2019-02-14T09:36:32.146Z,101421.83
2019-02-14T09:38:59.625Z,101428.27
2019-02-14T09:41:27.060Z,101427.66
2019-02-14T09:43:54.606Z,101434.15
2019-02-14T09:46:22.080Z,101430.74
2019-02-14T09:48:49.595Z,101437.09
2019-02-14T09:51:17.079Z,101429.70
2019-02-14T09:53:44.625Z,101423.63
2019-02-14T09:56:12.074Z,101414.73
2019-02-14T09:58:39.530Z,101423.25
2019-02-14T10:01:07.036Z,101423.84
2019-02-14T10:03:35.326Z,101422.58
2019-02-14T10:06:02.942Z,101430.93
2019-02-14T10:08:30.421Z,101427.73
2019-02-14T10:10:57.960Z,101427.78
2019-02-14T10:13:25.543Z,101425.88
2019-02-14T10:15:53.041Z,101434.58
2019-02-14T10:18:20.546Z,101434.92
2019-02-14T10:20:48.038Z,101431.52
2019-02-14T10:23:15.521Z,101434.17
2019-02-14T10:25:43.010Z,101435.41
2019-02-14T10:28:10.488Z,101428.72
2019-02-14T10:30:40.102Z,101432.45
2019-02-14T10:33:05.919Z,101431.77
2019-02-14T10:35:33.470Z,101435.78
2019-02-14T10:38:00.955Z,101429.98
2019-02-14T10:40:28.456Z,101428.80
2019-02-14T10:42:55.920Z,101432.38
2019-02-14T10:45:23.420Z,101418.74
2019-02-14T10:47:50.921Z,101425.05
2019-02-14T10:50:18.942Z,101420.83
2019-02-14T10:52:46.473Z,101419.70
2019-02-14T10:55:14.757Z,101424.42
2019-02-14T10:57:42.230Z,101421.91
2019-02-14T11:00:29.352Z,101420.86
2019-02-14T11:02:56.818Z,101428.78
2019-02-14T11:05:24.282Z,101419.53
2019-02-14T11:07:51.736Z,101417.14
2019-02-14T11:10:19.248Z,101418.99
2019-02-14T11:12:46.766Z,101416.88
2019-02-14T11:15:15.772Z,101414.31
2019-02-14T11:17:43.230Z,101415.42
2019-02-14T11:20:10.683Z,101416.13
2019-02-14T11:22:38.150Z,101405.97
2019-02-14T11:25:09.319Z,101404.14
2019-02-14T11:27:36.874Z,101399.83
2019-02-14T11:30:04.358Z,101397.62
2019-02-14T11:32:31.839Z,101391.55
2019-02-14T11:34:59.423Z,101390.05
2019-02-14T11:37:26.939Z,101386.66
2019-02-14T11:39:54.409Z,101385.87
2019-02-14T11:42:21.995Z,101380.76
2019-02-14T11:44:49.374Z,101379.81
2019-02-14T11:47:16.918Z,101379.65
2019-02-14T11:49:44.429Z,101383.47
2019-02-14T11:52:11.902Z,101388.29
2019-02-14T11:54:39.379Z,101390.06
2019-02-14T11:57:07.435Z,101384.30
2019-02-14T11:59:34.949Z,101382.52
2019-02-14T12:02:02.432Z,101384.85
2019-02-14T12:04:29.932Z,101382.13
2019-02-14T12:06:57.403Z,101384.60
2019-02-14T12:09:24.891Z,101387.45
2019-02-14T12:11:52.361Z,101386.12
2019-02-14T12:14:19.839Z,101383.44
2019-02-14T12:16:47.323Z,101377.55
2019-02-14T12:19:14.928Z,101375.76
2019-02-14T12:21:42.381Z,101369.87
2019-02-14T12:24:09.839Z,101372.78
2019-02-14T12:26:38.091Z,101368.09
2019-02-14T12:29:05.543Z,101362.95
2019-02-14T12:31:33.097Z,101360.48
2019-02-14T12:34:00.678Z,101357.05
2019-02-14T12:36:28.145Z,101356.27
2019-02-14T12:38:55.947Z,101353.58
2019-02-14T12:41:23.398Z,101350.30
2019-02-14T12:43:50.883Z,101348.98
2019-02-14T12:46:18.329Z,101354.02
2019-02-14T12:48:45.794Z,101345.94
2019-02-14T12:51:13.244Z,101341.53
2019-02-14T12:53:40.779Z,101341.75
2019-02-14T12:56:08.485Z,101335.39
2019-02-14T12:58:35.963Z,101337.27
2019-02-14T13:01:03.486Z,101337.74
2019-02-14T13:03:30.935Z,101329.02
2019-02-14T13:05:58.414Z,101328.08
2019-02-14T13:08:25.884Z,101327.74
2019-02-14T13:10:53.359Z,101322.51
2019-02-14T13:13:20.891Z,101322.02
2019-02-14T13:15:48.436Z,101318.28
2019-02-14T13:18:16.022Z,101317.98
2019-02-14T13:20:43.517Z,101324.75
2019-02-14T13:23:11.038Z,101324.16
2019-02-14T13:25:38.943Z,101322.91
2019-02-14T13:28:06.424Z,101321.87
2019-02-14T13:30:33.893Z,101321.58
2019-02-14T13:33:01.360Z,101321.52
2019-02-14T13:35:28.884Z,101322.86
2019-02-14T13:37:56.384Z,101314.25
2019-02-14T13:40:23.897Z,101307.53
2019-02-14T13:42:51.399Z,101308.94
2019-02-14T13:45:20.849Z,101306.73
2019-02-14T13:47:48.304Z,101310.80
2019-02-14T13:50:16.148Z,101312.45
2019-02-14T13:52:43.349Z,101312.58
2019-02-14T13:55:10.880Z,101313.02
2019-02-14T13:57:38.434Z,101307.53
2019-02-14T14:00:07.501Z,101302.02
2019-02-14T14:02:34.993Z,101300.00
2019-02-14T14:05:02.510Z,101296.47
2019-02-14T14:07:39.955Z,101297.52
2019-02-14T14:09:57.441Z,101299.17
2019-02-14T14:12:24.942Z,101300.19
2019-02-14T14:14:52.423Z,101295.31
2019-02-14T14:17:19.885Z,101294.78
2019-02-14T14:19:47.398Z,101288.89
2019-02-14T14:22:14.936Z,101289.62
2019-02-14T14:24:42.476Z,101284.70
2019-02-14T14:27:09.964Z,101286.20
2019-02-14T14:29:37.448Z,101285.24
2019-02-14T14:32:04.945Z,101287.33
2019-02-14T14:34:32.464Z,101290.68
2019-02-14T14:36:59.941Z,101281.88
2019-02-14T14:39:27.430Z,101283.48
2019-02-14T14:41:54.921Z,101278.88
2019-02-14T14:44:22.413Z,101275.30
2019-02-14T14:46:49.902Z,101274.28
2019-02-14T14:49:17.465Z,101274.99
2019-02-14T14:51:44.970Z,101276.36
2019-02-14T14:54:12.528Z,101284.91
2019-02-14T14:56:40.466Z,101277.84
2019-02-14T14:59:07.942Z,101275.75
2019-02-14T15:01:35.443Z,101276.22
2019-02-14T15:04:02.932Z,101268.44
2019-02-14T15:06:30.427Z,101273.33
2019-02-14T15:08:57.919Z,101274.73
2019-02-14T15:11:25.433Z,101277.59
2019-02-14T15:13:53.082Z,101271.49
2019-02-14T15:16:20.592Z,101266.42
2019-02-14T15:18:48.082Z,101268.23
2019-02-14T15:21:15.555Z,101277.59
2019-02-14T15:23:43.032Z,101274.55
2019-02-14T15:26:10.944Z,101271.65
2019-02-14T15:28:38.438Z,101272.67
2019-02-14T15:31:05.919Z,101268.00
2019-02-14T15:33:33.414Z,101262.06
2019-02-14T15:36:01.689Z,101256.24
2019-02-14T15:38:29.216Z,101256.34
2019-02-14T15:40:56.661Z,101249.80
2019-02-14T15:43:24.127Z,101253.93
2019-02-14T15:45:51.623Z,101244.81
2019-02-14T15:48:19.118Z,101248.30
2019-02-14T15:50:46.581Z,101244.22
2019-02-14T15:53:14.066Z,101246.45
2019-02-14T15:55:43.659Z,101258.33
2019-02-14T15:58:10.633Z,101249.45
2019-02-14T16:00:38.145Z,101253.61
2019-02-14T16:03:05.625Z,101253.95
2019-02-14T16:05:33.146Z,101254.56
2019-02-14T16:08:02.464Z,101254.30
2019-02-14T16:10:29.735Z,101255.69
2019-02-14T16:12:55.662Z,101250.90
2019-02-14T16:15:23.164Z,101253.25
2019-02-14T16:17:50.662Z,101249.77
2019-02-14T16:20:19.901Z,101251.50
2019-02-14T16:22:46.766Z,101248.83
2019-02-14T16:25:14.267Z,101250.92
2019-02-14T16:27:41.921Z,101254.26
2019-02-14T16:30:09.566Z,101253.08
2019-02-14T16:32:36.897Z,101252.06
2019-02-14T16:35:04.372Z,101255.14
2019-02-14T16:37:31.820Z,101252.38
2019-02-14T16:39:59.274Z,101248.55
2019-02-14T16:42:27.877Z,101246.66
2019-02-14T16:44:55.332Z,101252.81
2019-02-14T16:47:22.824Z,101251.27
2019-02-14T16:49:50.329Z,101255.27
2019-02-14T16:52:17.793Z,101247.77
2019-02-14T16:54:45.256Z,101247.82
2019-02-14T16:57:12.728Z,101251.17
2019-02-14T16:59:40.186Z,101256.57
2019-02-14T17:02:07.662Z,101254.19
2019-02-14T17:04:36.592Z,101255.48
2019-02-14T17:07:04.240Z,101256.72
2019-02-14T17:09:31.699Z,101262.36
2019-02-14T17:11:59.224Z,101258.98
2019-02-14T17:14:26.678Z,101258.34
2019-02-14T17:16:54.161Z,101254.09
2019-02-14T17:19:21.663Z,101258.97
2019-02-14T17:21:49.150Z,101262.98
2019-02-14T17:24:16.632Z,101265.52
2019-02-14T17:26:44.121Z,101263.33
2019-02-14T17:29:11.655Z,101265.27
2019-02-14T17:31:39.075Z,101263.92
2019-02-14T17:34:06.537Z,101258.68
2019-02-14T17:36:34.023Z,101251.23
2019-02-14T17:39:01.516Z,101253.70
2019-02-14T17:41:28.966Z,101259.06
2019-02-14T17:43:56.456Z,101263.92
2019-02-14T17:46:23.887Z,101260.00
2019-02-14T17:48:51.352Z,101259.39
2019-02-14T17:51:18.812Z,101259.56
2019-02-14T17:53:46.281Z,101264.48
2019-02-14T17:56:13.765Z,101264.13
2019-02-14T17:58:41.247Z,101267.83
2019-02-14T18:01:08.693Z,101267.82
2019-02-14T18:03:36.142Z,101268.97
2019-02-14T18:06:03.621Z,101271.72
2019-02-14T18:08:31.074Z,101270.69
2019-02-14T18:11:00.142Z,101267.41
2019-02-14T18:13:27.660Z,101261.52
2019-02-14T18:15:55.115Z,101267.54
2019-02-14T18:18:22.586Z,101266.59
2019-02-14T18:20:50.064Z,101265.80
2019-02-14T18:23:17.543Z,101267.45
2019-02-14T18:25:45.035Z,101261.05
2019-02-14T18:28:12.534Z,101260.35
2019-02-14T18:30:40.005Z,101257.84
2019-02-14T18:33:07.556Z,101256.37
2019-02-14T18:35:34.995Z,101256.98
2019-02-14T18:38:02.443Z,101250.73
2019-02-14T18:40:29.923Z,101247.30
2019-02-14T18:42:57.364Z,101251.55
2019-02-14T18:45:25.577Z,101246.89
2019-02-14T18:47:53.058Z,101245.70
2019-02-14T18:50:20.521Z,101252.70
2019-02-14T18:52:48.072Z,101261.25
2019-02-14T18:55:15.540Z,101259.88
2019-02-14T18:57:43.026Z,101260.52
2019-02-14T19:00:12.850Z,101260.52
2019-02-14T19:02:40.320Z,101263.40
2019-02-14T19:05:07.769Z,101262.20
2019-02-14T19:07:36.040Z,101260.47
2019-02-14T19:10:06.459Z,101257.59
2019-02-14T19:12:33.905Z,101254.37
2019-02-14T19:15:01.332Z,101260.24
2019-02-14T19:17:28.850Z,101255.44
2019-02-14T19:19:56.323Z,101255.16
2019-02-14T19:22:23.787Z,101247.52
2019-02-14T19:24:51.266Z,101252.05
2019-02-14T19:27:18.718Z,101254.72
2019-02-14T19:29:46.207Z,101250.34
2019-02-14T19:32:13.681Z,101249.84
2019-02-14T19:34:41.198Z,101245.95
2019-02-14T19:37:08.620Z,101243.98
2019-02-14T19:39:36.120Z,101243.71
2019-02-14T19:42:03.544Z,101241.58
2019-02-14T19:44:31.002Z,101236.48
2019-02-14T19:46:59.363Z,101231.17
2019-02-14T19:49:26.850Z,101232.69
2019-02-14T19:51:54.863Z,101225.81
2019-02-14T19:54:22.318Z,101226.55
2019-02-14T19:56:49.755Z,101232.09
2019-02-14T19:59:17.211Z,101235.70
2019-02-14T20:01:44.668Z,101227.16
2019-02-14T20:04:12.124Z,101221.52
2019-02-14T20:06:39.646Z,101221.61
2019-02-14T20:09:07.124Z,101219.39
2019-02-14T20:11:37.156Z,101217.04
2019-02-14T20:14:03.047Z,101219.05
2019-02-14T20:16:30.631Z,101219.95
2019-02-14T20:18:58.107Z,101217.66
2019-02-14T20:21:25.615Z,101217.90
2019-02-14T20:23:53.089Z,101216.91
2019-02-14T20:26:20.522Z,101219.51
2019-02-14T20:28:47.963Z,101217.42
2019-02-14T20:31:15.399Z,101217.08
2019-02-14T20:33:42.865Z,101216.05
2019-02-14T20:36:10.309Z,101214.82
2019-02-14T20:38:37.783Z,101214.15
2019-02-14T20:41:05.221Z,101208.78
2019-02-14T20:43:32.769Z,101205.86
2019-02-14T20:46:00.246Z,101199.23
2019-02-14T20:48:27.738Z,101198.76
2019-02-14T20:50:55.208Z,101194.41
2019-02-14T20:53:22.635Z,101198.11
2019-02-14T20:55:50.128Z,101195.12
2019-02-14T20:58:17.614Z,101195.52
2019-02-14T21:00:46.886Z,101198.50
2019-02-14T21:03:14.432Z,101193.98
2019-02-14T21:05:41.865Z,101197.56
2019-02-14T21:08:09.295Z,101191.89
2019-02-14T21:10:36.759Z,101200.63
2019-02-14T21:13:04.268Z,101195.27
2019-02-14T21:15:31.706Z,101191.41
2019-02-14T21:17:59.166Z,101187.52
2019-02-14T21:20:26.724Z,101187.27
2019-02-14T21:22:54.172Z,101198.42
2019-02-14T21:25:23.326Z,101192.44
2019-02-14T21:27:49.060Z,101199.28
2019-02-14T21:30:16.570Z,101200.61
2019-02-14T21:32:44.107Z,101196.89
2019-02-14T21:35:11.597Z,101198.18
2019-02-14T21:37:39.073Z,101196.58
2019-02-14T21:40:07.213Z,101201.44
2019-02-14T21:42:34.681Z,101206.40
2019-02-14T21:45:02.176Z,101207.86
2019-02-14T21:47:30.555Z,101204.81
2019-02-14T21:49:58.155Z,101206.61
2019-02-14T21:52:25.610Z,101202.38
2019-02-14T21:54:53.072Z,101204.38
2019-02-14T21:57:20.526Z,101210.36
2019-02-14T21:59:48.207Z,101200.16
2019-02-14T22:02:15.689Z,101199.84
2019-02-14T22:04:43.168Z,101200.24
2019-02-14T22:07:10.687Z,101195.79
2019-02-14T22:09:38.133Z,101196.52
2019-02-14T22:12:05.664Z,101194.20
2019-02-14T22:14:33.104Z,101194.26
2019-02-14T22:17:00.622Z,101191.91
2019-02-14T22:19:28.091Z,101193.45
2019-02-14T22:21:55.554Z,101195.80
2019-02-14T22:24:23.076Z,101196.46
2019-02-14T22:26:50.507Z,101198.45
2019-02-14T22:29:18.679Z,101195.53
2019-02-14T22:31:46.120Z,101191.09
2019-02-14T22:34:14.270Z,101195.01
2019-02-14T22:36:41.750Z,101200.42
2019-02-14T22:39:09.238Z,101197.98
2019-02-14T22:41:36.679Z,101196.70
2019-02-14T22:44:04.157Z,101194.19
2019-02-14T22:46:31.733Z,101196.72
2019-02-14T22:48:59.203Z,101195.47
2019-02-14T22:51:26.662Z,101200.14
2019-02-14T22:53:54.099Z,101196.05
2019-02-14T22:56:21.610Z,101196.33
2019-02-14T22:58:49.282Z,101195.48
2019-02-14T23:01:16.683Z,101202.48
2019-02-14T23:03:44.194Z,101197.53
2019-02-14T23:06:11.643Z,101195.69
2019-02-14T23:08:39.102Z,101196.78
2019-02-14T23:11:06.542Z,101199.37
2019-02-14T23:13:34.018Z,101203.84
2019-02-14T23:16:03.042Z,101202.56
2019-02-14T23:18:30.510Z,101208.82
2019-02-14T23:20:57.967Z,101199.55
2019-02-14T23:23:25.423Z,101199.52
2019-02-14T23:25:52.907Z,101196.63
2019-02-14T23:28:20.376Z,101201.03
2019-02-14T23:30:47.933Z,101205.06
2019-02-14T23:33:15.359Z,101205.69
2019-02-14T23:35:42.816Z,101205.17
2019-02-14T23:38:10.257Z,101204.34
2019-02-14T23:40:37.702Z,101199.95
2019-02-14T23:43:07.122Z,101199.02
2019-02-14T23:45:32.630Z,101198.58
2019-02-14T23:48:00.094Z,101200.55
2019-02-14T23:50:27.544Z,101200.03
2019-02-14T23:55:28.721Z,101204.67
2019-02-14T23:57:56.186Z,101205.30
